DAUL/LOO METAR and TAF weather

Enter ICAO airport designator
Station Type Date Time Source
DAUL METAR 2019/12/14 18:00 UTC NOAA

DAUL 141800Z 00000KT CAVOK 14/07 Q1021


Station Type Date Time Source
DAUL Decoded METAR 2019/12/14 18:00 UTC NOAA

Laghouat, Algeria (DAUL) 33-46N 002-56E 765M
Dec 14, 2019 - 01:00 PM EST / 2019.12.14 1800 UTC
Wind: Calm:0
Visibility: greater than 7 mile(s):0
Temperature: 57 F (14 C)
Dew Point: 44 F (7 C)
Relative Humidity: 62%
Pressure (altimeter): 30.15 in. Hg (1021 hPa)
ob: DAUL 141800Z 00000KT CAVOK 14/07 Q1021
cycle: 18

Station Type Date Time Source
DAUL TAF 2017/11/09 18:03 UTC NOAA

TAF DAUL 091700Z 0918/1009 02012KT 9999 SCT030 SCT100 PROB40
TEMPO 0918/0924 35020G30KT 4000 -TSRA FEW030CB

Example: see airport list